Terminal Aerodrome Forecast
Issued by NWS

Home | Current Version | Previous Version | Text Only | Print | Product List | Glossary On
Versions: 1 2 3 4 5 6 7 8 9 10 11 12 13 14 15 16 17 18 19 20
000
FTAK31 PAJN 141916 AAA
TAFAYA
TAF AMD
PAYA 141916Z 1419/1518 12015G25KT 6SM -RA BR SCT015 OVC025
      WS020/16045KT
      TEMPO 1419/1421 4SM RA BR BKN006 OVC015
     FM142200 18012G21KT 5SM SHRA BR SCT015 OVC025 WS020/20035KT
     FM150300 16010KT 6SM -SHRA BR OVC025
     FM151100 10008KT P6SM -SHRA BKN030 OVC050
      AMD LTD TO CLD VIS AND WIND=

USA.gov is the U.S. government's official web portal to all federal, state and local government web resources and services.